sensor_id;sensor_type;location;lat;lon;timestamp;P1;durP1;ratioP1;P2;durP2;ratioP2
30247;SDS011;17063;50.892;4.702;2023-11-18T00:01:05;16.60;;;9.03;;
30247;SDS011;17063;50.892;4.702;2023-11-18T00:03:32;15.03;;;8.73;;
30247;SDS011;17063;50.892;4.702;2023-11-18T00:05:59;14.63;;;8.27;;
30247;SDS011;17063;50.892;4.702;2023-11-18T00:08:26;17.53;;;9.13;;
30247;SDS011;17063;50.892;4.702;2023-11-18T00:10:53;14.30;;;8.90;;
30247;SDS011;17063;50.892;4.702;2023-11-18T00:13:21;13.00;;;8.20;;
30247;SDS011;17063;50.892;4.702;2023-11-18T00:15:48;15.27;;;8.03;;
30247;SDS011;17063;50.892;4.702;2023-11-18T00:18:15;16.03;;;7.73;;
30247;SDS011;17063;50.892;4.702;2023-11-18T00:20:42;14.77;;;8.30;;
30247;SDS011;17063;50.892;4.702;2023-11-18T00:23:10;14.33;;;7.23;;
30247;SDS011;17063;50.892;4.702;2023-11-18T00:25:37;14.57;;;8.40;;
30247;SDS011;17063;50.892;4.702;2023-11-18T00:28:06;13.97;;;7.93;;
30247;SDS011;17063;50.892;4.702;2023-11-18T00:30:36;14.60;;;7.70;;
30247;SDS011;17063;50.892;4.702;2023-11-18T00:33:03;13.70;;;8.67;;
30247;SDS011;17063;50.892;4.702;2023-11-18T00:35:30;11.70;;;7.80;;
30247;SDS011;17063;50.892;4.702;2023-11-18T00:37:58;14.47;;;7.63;;
30247;SDS011;17063;50.892;4.702;2023-11-18T00:40:25;13.57;;;8.57;;
30247;SDS011;17063;50.892;4.702;2023-11-18T00:42:53;15.33;;;8.47;;
30247;SDS011;17063;50.892;4.702;2023-11-18T00:45:20;15.87;;;8.20;;
30247;SDS011;17063;50.892;4.702;2023-11-18T00:47:47;16.77;;;8.20;;
30247;SDS011;17063;50.892;4.702;2023-11-18T00:50:14;15.17;;;8.10;;
30247;SDS011;17063;50.892;4.702;2023-11-18T00:52:41;14.93;;;8.13;;
30247;SDS011;17063;50.892;4.702;2023-11-18T00:55:08;15.43;;;9.57;;
30247;SDS011;17063;50.892;4.702;2023-11-18T00:57:37;12.13;;;8.40;;
30247;SDS011;17063;50.892;4.702;2023-11-18T01:00:07;13.70;;;7.67;;
30247;SDS011;17063;50.892;4.702;2023-11-18T01:02:36;13.33;;;8.57;;
30247;SDS011;17063;50.892;4.702;2023-11-18T01:05:05;17.13;;;8.40;;
30247;SDS011;17063;50.892;4.702;2023-11-18T01:07:33;15.37;;;7.80;;
30247;SDS011;17063;50.892;4.702;2023-11-18T01:10:00;14.07;;;8.23;;
30247;SDS011;17063;50.892;4.702;2023-11-18T01:12:27;13.93;;;8.23;;
30247;SDS011;17063;50.892;4.702;2023-11-18T01:14:54;13.03;;;7.87;;
30247;SDS011;17063;50.892;4.702;2023-11-18T01:17:20;20.50;;;8.33;;
30247;SDS011;17063;50.892;4.702;2023-11-18T01:19:48;15.60;;;7.53;;
30247;SDS011;17063;50.892;4.702;2023-11-18T01:22:15;16.07;;;7.90;;
30247;SDS011;17063;50.892;4.702;2023-11-18T01:24:44;16.63;;;7.90;;
30247;SDS011;17063;50.892;4.702;2023-11-18T01:27:12;13.37;;;8.03;;
30247;SDS011;17063;50.892;4.702;2023-11-18T01:29:39;15.10;;;7.67;;
30247;SDS011;17063;50.892;4.702;2023-11-18T01:32:06;14.83;;;8.03;;
30247;SDS011;17063;50.892;4.702;2023-11-18T01:34:36;12.77;;;7.53;;
30247;SDS011;17063;50.892;4.702;2023-11-18T01:37:06;14.20;;;7.50;;
30247;SDS011;17063;50.892;4.702;2023-11-18T01:39:34;14.63;;;7.63;;
30247;SDS011;17063;50.892;4.702;2023-11-18T01:42:01;20.50;;;8.10;;
30247;SDS011;17063;50.892;4.702;2023-11-18T01:44:30;17.47;;;7.60;;
30247;SDS011;17063;50.892;4.702;2023-11-18T01:46:57;18.67;;;7.77;;
30247;SDS011;17063;50.892;4.702;2023-11-18T01:49:25;15.57;;;7.30;;
30247;SDS011;17063;50.892;4.702;2023-11-18T01:51:54;15.67;;;7.50;;
30247;SDS011;17063;50.892;4.702;2023-11-18T01:54:21;16.13;;;7.70;;
30247;SDS011;17063;50.892;4.702;2023-11-18T01:56:48;13.67;;;8.30;;
30247;SDS011;17063;50.892;4.702;2023-11-18T01:59:16;16.23;;;7.63;;
30247;SDS011;17063;50.892;4.702;2023-11-18T02:01:47;15.87;;;7.20;;
30247;SDS011;17063;50.892;4.702;2023-11-18T02:04:17;18.40;;;7.57;;
30247;SDS011;17063;50.892;4.702;2023-11-18T02:06:50;17.83;;;7.23;;
30247;SDS011;17063;50.892;4.702;2023-11-18T02:09:20;16.07;;;7.50;;
30247;SDS011;17063;50.892;4.702;2023-11-18T02:14:39;12.87;;;6.73;;
30247;SDS011;17063;50.892;4.702;2023-11-18T02:17:06;12.60;;;6.83;;
30247;SDS011;17063;50.892;4.702;2023-11-18T02:19:37;15.33;;;6.43;;
30247;SDS011;17063;50.892;4.702;2023-11-18T02:22:06;16.97;;;7.20;;
30247;SDS011;17063;50.892;4.702;2023-11-18T02:24:34;15.00;;;7.63;;
30247;SDS011;17063;50.892;4.702;2023-11-18T02:27:04;12.23;;;6.73;;
30247;SDS011;17063;50.892;4.702;2023-11-18T02:29:39;15.90;;;7.70;;
30247;SDS011;17063;50.892;4.702;2023-11-18T02:32:31;15.07;;;7.43;;
30247;SDS011;17063;50.892;4.702;2023-11-18T02:35:09;17.30;;;6.90;;
30247;SDS011;17063;50.892;4.702;2023-11-18T02:37:38;9.87;;;6.00;;
30247;SDS011;17063;50.892;4.702;2023-11-18T02:40:06;15.50;;;6.33;;
30247;SDS011;17063;50.892;4.702;2023-11-18T02:42:41;14.97;;;7.03;;
30247;SDS011;17063;50.892;4.702;2023-11-18T02:45:11;14.97;;;6.57;;
30247;SDS011;17063;50.892;4.702;2023-11-18T02:47:44;17.10;;;6.63;;
30247;SDS011;17063;50.892;4.702;2023-11-18T02:50:11;20.33;;;7.50;;
30247;SDS011;17063;50.892;4.702;2023-11-18T02:52:40;13.23;;;6.80;;
30247;SDS011;17063;50.892;4.702;2023-11-18T02:55:07;13.83;;;6.93;;
30247;SDS011;17063;50.892;4.702;2023-11-18T02:57:35;14.37;;;6.33;;
30247;SDS011;17063;50.892;4.702;2023-11-18T03:00:06;14.90;;;6.70;;
30247;SDS011;17063;50.892;4.702;2023-11-18T03:02:38;16.27;;;6.70;;
30247;SDS011;17063;50.892;4.702;2023-11-18T03:05:06;14.53;;;6.50;;
30247;SDS011;17063;50.892;4.702;2023-11-18T03:07:34;21.50;;;7.00;;
30247;SDS011;17063;50.892;4.702;2023-11-18T03:10:01;15.43;;;6.10;;
30247;SDS011;17063;50.892;4.702;2023-11-18T03:12:29;14.00;;;6.10;;
30247;SDS011;17063;50.892;4.702;2023-11-18T03:14:56;11.80;;;5.10;;
30247;SDS011;17063;50.892;4.702;2023-11-18T03:17:24;11.70;;;5.27;;
30247;SDS011;17063;50.892;4.702;2023-11-18T03:19:51;12.00;;;5.13;;
30247;SDS011;17063;50.892;4.702;2023-11-18T03:22:18;11.53;;;4.90;;
30247;SDS011;17063;50.892;4.702;2023-11-18T03:24:45;11.80;;;5.20;;
30247;SDS011;17063;50.892;4.702;2023-11-18T03:27:12;11.07;;;4.93;;
30247;SDS011;17063;50.892;4.702;2023-11-18T03:29:40;15.83;;;5.30;;
30247;SDS011;17063;50.892;4.702;2023-11-18T03:32:07;14.30;;;5.23;;
30247;SDS011;17063;50.892;4.702;2023-11-18T03:34:34;9.53;;;4.60;;
30247;SDS011;17063;50.892;4.702;2023-11-18T03:37:00;15.20;;;4.70;;
30247;SDS011;17063;50.892;4.702;2023-11-18T03:39:27;16.23;;;5.03;;
30247;SDS011;17063;50.892;4.702;2023-11-18T03:41:54;13.53;;;5.17;;
30247;SDS011;17063;50.892;4.702;2023-11-18T03:44:23;10.73;;;4.57;;
30247;SDS011;17063;50.892;4.702;2023-11-18T03:46:50;12.50;;;4.40;;
30247;SDS011;17063;50.892;4.702;2023-11-18T03:49:17;9.90;;;4.70;;
30247;SDS011;17063;50.892;4.702;2023-11-18T03:51:46;14.40;;;4.27;;
30247;SDS011;17063;50.892;4.702;2023-11-18T03:54:12;15.60;;;4.37;;
30247;SDS011;17063;50.892;4.702;2023-11-18T03:56:40;10.27;;;4.20;;
30247;SDS011;17063;50.892;4.702;2023-11-18T03:59:07;17.30;;;4.80;;
30247;SDS011;17063;50.892;4.702;2023-11-18T04:01:33;11.33;;;4.60;;
30247;SDS011;17063;50.892;4.702;2023-11-18T04:04:01;13.93;;;4.60;;
30247;SDS011;17063;50.892;4.702;2023-11-18T04:06:27;10.13;;;4.33;;
30247;SDS011;17063;50.892;4.702;2023-11-18T04:08:54;8.17;;;4.10;;
30247;SDS011;17063;50.892;4.702;2023-11-18T04:11:21;10.57;;;3.93;;
30247;SDS011;17063;50.892;4.702;2023-11-18T04:13:48;9.80;;;3.83;;
30247;SDS011;17063;50.892;4.702;2023-11-18T04:16:15;11.63;;;4.07;;
30247;SDS011;17063;50.892;4.702;2023-11-18T04:18:43;17.40;;;3.40;;
30247;SDS011;17063;50.892;4.702;2023-11-18T04:21:10;8.53;;;4.07;;
30247;SDS011;17063;50.892;4.702;2023-11-18T04:23:40;13.53;;;4.17;;
30247;SDS011;17063;50.892;4.702;2023-11-18T04:26:08;7.40;;;3.33;;
30247;SDS011;17063;50.892;4.702;2023-11-18T04:28:35;11.40;;;3.90;;
30247;SDS011;17063;50.892;4.702;2023-11-18T04:31:03;11.17;;;3.93;;
30247;SDS011;17063;50.892;4.702;2023-11-18T04:33:32;10.70;;;3.27;;
30247;SDS011;17063;50.892;4.702;2023-11-18T04:36:00;12.37;;;3.97;;
30247;SDS011;17063;50.892;4.702;2023-11-18T04:38:27;12.53;;;3.47;;
30247;SDS011;17063;50.892;4.702;2023-11-18T04:40:54;7.67;;;3.47;;
30247;SDS011;17063;50.892;4.702;2023-11-18T04:43:21;8.83;;;3.50;;
30247;SDS011;17063;50.892;4.702;2023-11-18T04:46:06;8.33;;;3.20;;
30247;SDS011;17063;50.892;4.702;2023-11-18T04:48:34;7.83;;;2.87;;
30247;SDS011;17063;50.892;4.702;2023-11-18T04:51:06;9.57;;;3.60;;
30247;SDS011;17063;50.892;4.702;2023-11-18T04:53:33;8.60;;;3.20;;
30247;SDS011;17063;50.892;4.702;2023-11-18T04:56:01;9.70;;;2.90;;
30247;SDS011;17063;50.892;4.702;2023-11-18T04:58:29;10.63;;;3.03;;
30247;SDS011;17063;50.892;4.702;2023-11-18T05:00:56;7.97;;;2.83;;
30247;SDS011;17063;50.892;4.702;2023-11-18T05:03:23;10.07;;;3.40;;
30247;SDS011;17063;50.892;4.702;2023-11-18T05:05:51;9.50;;;2.80;;
30247;SDS011;17063;50.892;4.702;2023-11-18T05:08:22;9.67;;;3.10;;
30247;SDS011;17063;50.892;4.702;2023-11-18T05:10:49;11.67;;;2.97;;
30247;SDS011;17063;50.892;4.702;2023-11-18T05:13:17;5.27;;;2.37;;
30247;SDS011;17063;50.892;4.702;2023-11-18T05:15:46;10.77;;;2.70;;
30247;SDS011;17063;50.892;4.702;2023-11-18T05:18:14;6.73;;;2.60;;
30247;SDS011;17063;50.892;4.702;2023-11-18T05:20:42;11.10;;;2.70;;
30247;SDS011;17063;50.892;4.702;2023-11-18T05:23:10;8.70;;;2.90;;
30247;SDS011;17063;50.892;4.702;2023-11-18T05:25:41;9.80;;;2.67;;
30247;SDS011;17063;50.892;4.702;2023-11-18T05:28:11;10.50;;;2.63;;
30247;SDS011;17063;50.892;4.702;2023-11-18T05:30:40;7.17;;;2.50;;
30247;SDS011;17063;50.892;4.702;2023-11-18T05:33:09;9.13;;;2.53;;
30247;SDS011;17063;50.892;4.702;2023-11-18T05:35:41;5.20;;;2.30;;
30247;SDS011;17063;50.892;4.702;2023-11-18T05:38:16;4.73;;;2.50;;
30247;SDS011;17063;50.892;4.702;2023-11-18T05:40:45;7.83;;;2.77;;
30247;SDS011;17063;50.892;4.702;2023-11-18T05:43:30;8.13;;;2.40;;
30247;SDS011;17063;50.892;4.702;2023-11-18T05:46:08;9.97;;;2.60;;
30247;SDS011;17063;50.892;4.702;2023-11-18T05:48:42;7.57;;;3.00;;
30247;SDS011;17063;50.892;4.702;2023-11-18T05:51:10;9.07;;;2.10;;
30247;SDS011;17063;50.892;4.702;2023-11-18T05:53:41;8.00;;;2.20;;
30247;SDS011;17063;50.892;4.702;2023-11-18T05:56:11;8.70;;;2.57;;
30247;SDS011;17063;50.892;4.702;2023-11-18T05:58:39;8.70;;;2.17;;
30247;SDS011;17063;50.892;4.702;2023-11-18T06:01:06;8.07;;;2.50;;
30247;SDS011;17063;50.892;4.702;2023-11-18T06:03:34;7.73;;;1.97;;
30247;SDS011;17063;50.892;4.702;2023-11-18T06:06:06;14.27;;;2.23;;
30247;SDS011;17063;50.892;4.702;2023-11-18T06:08:34;10.63;;;2.50;;
30247;SDS011;17063;50.892;4.702;2023-11-18T06:11:02;7.37;;;1.80;;
30247;SDS011;17063;50.892;4.702;2023-11-18T06:13:43;4.00;;;1.87;;
30247;SDS011;17063;50.892;4.702;2023-11-18T06:16:13;5.00;;;2.20;;
30247;SDS011;17063;50.892;4.702;2023-11-18T06:18:48;9.33;;;2.30;;
30247;SDS011;17063;50.892;4.702;2023-11-18T06:21:17;4.33;;;1.60;;
30247;SDS011;17063;50.892;4.702;2023-11-18T06:23:47;3.33;;;1.90;;
30247;SDS011;17063;50.892;4.702;2023-11-18T06:26:14;9.07;;;2.13;;
30247;SDS011;17063;50.892;4.702;2023-11-18T06:28:42;6.70;;;2.17;;
30247;SDS011;17063;50.892;4.702;2023-11-18T06:31:10;4.63;;;1.87;;
30247;SDS011;17063;50.892;4.702;2023-11-18T06:33:42;5.27;;;1.70;;
30247;SDS011;17063;50.892;4.702;2023-11-18T06:38:41;6.83;;;2.00;;
30247;SDS011;17063;50.892;4.702;2023-11-18T06:41:08;5.43;;;1.77;;
30247;SDS011;17063;50.892;4.702;2023-11-18T06:43:39;7.97;;;1.60;;
30247;SDS011;17063;50.892;4.702;2023-11-18T06:46:30;5.67;;;1.80;;
30247;SDS011;17063;50.892;4.702;2023-11-18T06:49:01;4.80;;;1.60;;
30247;SDS011;17063;50.892;4.702;2023-11-18T06:51:34;8.53;;;1.90;;
30247;SDS011;17063;50.892;4.702;2023-11-18T06:54:03;6.40;;;2.00;;
30247;SDS011;17063;50.892;4.702;2023-11-18T06:56:36;8.17;;;1.70;;
30247;SDS011;17063;50.892;4.702;2023-11-18T06:59:04;7.20;;;2.87;;
30247;SDS011;17063;50.892;4.702;2023-11-18T07:01:33;6.57;;;1.97;;
30247;SDS011;17063;50.892;4.702;2023-11-18T07:04:00;5.50;;;2.50;;
30247;SDS011;17063;50.892;4.702;2023-11-18T07:06:28;10.30;;;1.97;;
30247;SDS011;17063;50.892;4.702;2023-11-18T07:08:55;6.90;;;2.20;;
30247;SDS011;17063;50.892;4.702;2023-11-18T07:11:26;6.77;;;1.90;;
30247;SDS011;17063;50.892;4.702;2023-11-18T07:13:54;6.50;;;1.77;;
30247;SDS011;17063;50.892;4.702;2023-11-18T07:16:23;5.40;;;1.70;;
30247;SDS011;17063;50.892;4.702;2023-11-18T07:18:52;7.30;;;1.70;;
30247;SDS011;17063;50.892;4.702;2023-11-18T07:21:19;9.87;;;1.70;;
30247;SDS011;17063;50.892;4.702;2023-11-18T07:23:46;8.20;;;2.50;;
30247;SDS011;17063;50.892;4.702;2023-11-18T07:26:13;4.40;;;1.70;;
30247;SDS011;17063;50.892;4.702;2023-11-18T07:28:43;11.30;;;1.70;;
30247;SDS011;17063;50.892;4.702;2023-11-18T07:31:10;7.03;;;2.30;;
30247;SDS011;17063;50.892;4.702;2023-11-18T07:33:37;6.77;;;1.83;;
30247;SDS011;17063;50.892;4.702;2023-11-18T07:36:07;10.03;;;1.73;;
30247;SDS011;17063;50.892;4.702;2023-11-18T07:38:37;14.20;;;1.90;;
30247;SDS011;17063;50.892;4.702;2023-11-18T07:41:06;4.83;;;1.57;;
30247;SDS011;17063;50.892;4.702;2023-11-18T07:43:35;4.23;;;2.03;;
30247;SDS011;17063;50.892;4.702;2023-11-18T07:46:07;5.47;;;1.77;;
30247;SDS011;17063;50.892;4.702;2023-11-18T07:48:35;6.40;;;2.40;;
30247;SDS011;17063;50.892;4.702;2023-11-18T07:51:01;7.23;;;2.20;;
30247;SDS011;17063;50.892;4.702;2023-11-18T07:53:32;7.97;;;2.27;;
30247;SDS011;17063;50.892;4.702;2023-11-18T07:55:59;8.13;;;2.10;;
30247;SDS011;17063;50.892;4.702;2023-11-18T07:58:28;8.27;;;1.80;;
30247;SDS011;17063;50.892;4.702;2023-11-18T08:00:55;9.50;;;2.37;;
30247;SDS011;17063;50.892;4.702;2023-11-18T08:03:22;5.50;;;1.80;;
30247;SDS011;17063;50.892;4.702;2023-11-18T08:05:51;7.53;;;2.53;;
30247;SDS011;17063;50.892;4.702;2023-11-18T08:08:18;8.07;;;2.03;;
30247;SDS011;17063;50.892;4.702;2023-11-18T08:10:48;7.77;;;1.60;;
30247;SDS011;17063;50.892;4.702;2023-11-18T08:13:17;9.20;;;2.10;;
30247;SDS011;17063;50.892;4.702;2023-11-18T08:15:48;7.07;;;2.13;;
30247;SDS011;17063;50.892;4.702;2023-11-18T08:18:15;7.83;;;2.30;;
30247;SDS011;17063;50.892;4.702;2023-11-18T08:20:43;7.27;;;2.50;;
30247;SDS011;17063;50.892;4.702;2023-11-18T08:23:12;8.57;;;2.33;;
30247;SDS011;17063;50.892;4.702;2023-11-18T08:28:40;5.73;;;2.30;;
30247;SDS011;17063;50.892;4.702;2023-11-18T08:31:07;7.87;;;2.53;;
30247;SDS011;17063;50.892;4.702;2023-11-18T08:33:35;10.00;;;2.50;;
30247;SDS011;17063;50.892;4.702;2023-11-18T08:36:02;13.20;;;2.40;;
30247;SDS011;17063;50.892;4.702;2023-11-18T08:38:29;7.27;;;2.10;;
30247;SDS011;17063;50.892;4.702;2023-11-18T08:40:56;5.53;;;2.00;;
30247;SDS011;17063;50.892;4.702;2023-11-18T08:43:23;5.73;;;2.07;;
30247;SDS011;17063;50.892;4.702;2023-11-18T08:45:51;14.67;;;2.40;;
30247;SDS011;17063;50.892;4.702;2023-11-18T08:48:18;11.23;;;2.50;;
30247;SDS011;17063;50.892;4.702;2023-11-18T08:50:45;9.07;;;2.23;;
30247;SDS011;17063;50.892;4.702;2023-11-18T08:53:13;10.73;;;2.77;;
30247;SDS011;17063;50.892;4.702;2023-11-18T08:55:44;7.57;;;2.70;;
30247;SDS011;17063;50.892;4.702;2023-11-18T08:58:12;5.27;;;2.30;;
30247;SDS011;17063;50.892;4.702;2023-11-18T09:00:50;12.83;;;2.80;;
30247;SDS011;17063;50.892;4.702;2023-11-18T09:03:25;9.73;;;2.40;;
30247;SDS011;17063;50.892;4.702;2023-11-18T09:05:56;6.03;;;2.53;;
30247;SDS011;17063;50.892;4.702;2023-11-18T09:08:34;4.40;;;2.50;;
30247;SDS011;17063;50.892;4.702;2023-11-18T09:11:06;11.17;;;2.80;;
30247;SDS011;17063;50.892;4.702;2023-11-18T09:13:34;6.40;;;2.40;;
30247;SDS011;17063;50.892;4.702;2023-11-18T09:16:03;8.73;;;2.77;;
30247;SDS011;17063;50.892;4.702;2023-11-18T09:18:40;9.97;;;2.87;;
30247;SDS011;17063;50.892;4.702;2023-11-18T09:21:09;6.57;;;2.83;;
30247;SDS011;17063;50.892;4.702;2023-11-18T09:23:46;10.63;;;3.70;;
30247;SDS011;17063;50.892;4.702;2023-11-18T09:26:16;8.83;;;3.00;;
30247;SDS011;17063;50.892;4.702;2023-11-18T09:28:43;9.40;;;2.80;;
30247;SDS011;17063;50.892;4.702;2023-11-18T09:31:11;9.67;;;3.20;;
30247;SDS011;17063;50.892;4.702;2023-11-18T09:33:39;7.60;;;2.50;;
30247;SDS011;17063;50.892;4.702;2023-11-18T09:36:11;7.40;;;2.27;;
30247;SDS011;17063;50.892;4.702;2023-11-18T09:38:41;10.10;;;2.97;;
30247;SDS011;17063;50.892;4.702;2023-11-18T09:41:10;6.67;;;2.60;;
30247;SDS011;17063;50.892;4.702;2023-11-18T09:43:41;8.50;;;2.87;;
30247;SDS011;17063;50.892;4.702;2023-11-18T09:46:10;10.03;;;2.77;;
30247;SDS011;17063;50.892;4.702;2023-11-18T09:48:50;16.03;;;3.23;;
30247;SDS011;17063;50.892;4.702;2023-11-18T09:51:27;5.87;;;2.60;;
30247;SDS011;17063;50.892;4.702;2023-11-18T09:54:00;5.67;;;2.70;;
30247;SDS011;17063;50.892;4.702;2023-11-18T09:59:07;6.83;;;2.80;;
30247;SDS011;17063;50.892;4.702;2023-11-18T10:01:43;7.10;;;3.13;;
30247;SDS011;17063;50.892;4.702;2023-11-18T10:04:11;5.67;;;2.87;;
30247;SDS011;17063;50.892;4.702;2023-11-18T10:06:40;7.73;;;3.03;;
30247;SDS011;17063;50.892;4.702;2023-11-18T10:09:08;8.47;;;3.50;;
30247;SDS011;17063;50.892;4.702;2023-11-18T10:11:42;9.93;;;3.17;;
30247;SDS011;17063;50.892;4.702;2023-11-18T10:14:13;5.73;;;3.10;;
30247;SDS011;17063;50.892;4.702;2023-11-18T10:16:43;6.70;;;2.77;;
30247;SDS011;17063;50.892;4.702;2023-11-18T10:19:13;8.87;;;2.60;;
30247;SDS011;17063;50.892;4.702;2023-11-18T10:21:40;10.80;;;2.90;;
30247;SDS011;17063;50.892;4.702;2023-11-18T10:24:07;5.43;;;2.80;;
30247;SDS011;17063;50.892;4.702;2023-11-18T10:26:42;6.00;;;2.93;;
30247;SDS011;17063;50.892;4.702;2023-11-18T10:29:11;6.53;;;2.53;;
30247;SDS011;17063;50.892;4.702;2023-11-18T10:31:39;7.77;;;3.03;;
30247;SDS011;17063;50.892;4.702;2023-11-18T10:34:12;5.20;;;2.60;;
30247;SDS011;17063;50.892;4.702;2023-11-18T10:36:42;5.37;;;2.80;;
30247;SDS011;17063;50.892;4.702;2023-11-18T10:39:27;6.53;;;3.00;;
30247;SDS011;17063;50.892;4.702;2023-11-18T10:42:01;6.30;;;3.07;;
30247;SDS011;17063;50.892;4.702;2023-11-18T10:44:29;6.07;;;2.83;;
30247;SDS011;17063;50.892;4.702;2023-11-18T10:46:56;6.70;;;2.77;;
30247;SDS011;17063;50.892;4.702;2023-11-18T10:49:28;4.77;;;2.83;;
30247;SDS011;17063;50.892;4.702;2023-11-18T10:52:04;5.47;;;2.70;;
30247;SDS011;17063;50.892;4.702;2023-11-18T10:54:33;7.63;;;3.40;;
30247;SDS011;17063;50.892;4.702;2023-11-18T10:57:00;7.67;;;3.07;;
30247;SDS011;17063;50.892;4.702;2023-11-18T10:59:34;7.63;;;2.70;;
30247;SDS011;17063;50.892;4.702;2023-11-18T11:02:01;5.00;;;2.70;;
30247;SDS011;17063;50.892;4.702;2023-11-18T11:04:47;6.53;;;2.30;;
30247;SDS011;17063;50.892;4.702;2023-11-18T11:07:17;7.00;;;2.37;;
30247;SDS011;17063;50.892;4.702;2023-11-18T11:09:46;4.13;;;2.60;;
30247;SDS011;17063;50.892;4.702;2023-11-18T11:12:13;8.83;;;3.77;;
30247;SDS011;17063;50.892;4.702;2023-11-18T11:14:50;3.07;;;2.10;;
30247;SDS011;17063;50.892;4.702;2023-11-18T11:17:50;4.17;;;2.00;;
30247;SDS011;17063;50.892;4.702;2023-11-18T11:20:22;4.20;;;2.20;;
30247;SDS011;17063;50.892;4.702;2023-11-18T11:23:01;5.03;;;2.20;;
30247;SDS011;17063;50.892;4.702;2023-11-18T11:28:24;3.37;;;2.03;;
30247;SDS011;17063;50.892;4.702;2023-11-18T11:31:03;5.90;;;1.63;;
30247;SDS011;17063;50.892;4.702;2023-11-18T11:33:40;3.90;;;1.83;;
30247;SDS011;17063;50.892;4.702;2023-11-18T11:36:11;2.80;;;1.83;;
30247;SDS011;17063;50.892;4.702;2023-11-18T11:38:42;5.70;;;2.13;;
30247;SDS011;17063;50.892;4.702;2023-11-18T11:41:13;5.60;;;2.47;;
30247;SDS011;17063;50.892;4.702;2023-11-18T11:43:48;3.47;;;1.60;;
30247;SDS011;17063;50.892;4.702;2023-11-18T11:46:15;4.10;;;2.30;;
30247;SDS011;17063;50.892;4.702;2023-11-18T11:48:50;1.67;;;1.50;;
30247;SDS011;17063;50.892;4.702;2023-11-18T11:51:30;3.13;;;1.63;;
30247;SDS011;17063;50.892;4.702;2023-11-18T11:54:06;2.50;;;1.40;;
30247;SDS011;17063;50.892;4.702;2023-11-18T11:56:41;3.03;;;1.40;;
30247;SDS011;17063;50.892;4.702;2023-11-18T11:59:16;3.10;;;1.40;;
30247;SDS011;17063;50.892;4.702;2023-11-18T12:01:43;2.70;;;1.43;;
30247;SDS011;17063;50.892;4.702;2023-11-18T12:04:17;2.40;;;1.50;;
30247;SDS011;17063;50.892;4.702;2023-11-18T12:06:48;4.40;;;1.00;;
30247;SDS011;17063;50.892;4.702;2023-11-18T12:09:29;5.00;;;1.20;;
30247;SDS011;17063;50.892;4.702;2023-11-18T12:11:59;2.77;;;1.27;;
30247;SDS011;17063;50.892;4.702;2023-11-18T12:14:27;2.90;;;1.20;;
30247;SDS011;17063;50.892;4.702;2023-11-18T12:19:41;2.97;;;0.97;;
30247;SDS011;17063;50.892;4.702;2023-11-18T12:22:23;2.57;;;1.10;;
30247;SDS011;17063;50.892;4.702;2023-11-18T12:27:42;1.93;;;1.03;;
30247;SDS011;17063;50.892;4.702;2023-11-18T12:41:05;0.90;;;0.63;;
30247;SDS011;17063;50.892;4.702;2023-11-18T12:49:20;1.60;;;0.80;;
30247;SDS011;17063;50.892;4.702;2023-11-18T12:51:52;2.10;;;0.60;;
30247;SDS011;17063;50.892;4.702;2023-11-18T12:54:22;1.50;;;0.60;;
30247;SDS011;17063;50.892;4.702;2023-11-18T12:56:56;0.80;;;0.73;;
30247;SDS011;17063;50.892;4.702;2023-11-18T12:59:23;7.53;;;2.30;;
30247;SDS011;17063;50.892;4.702;2023-11-18T13:01:51;0.63;;;0.63;;
30247;SDS011;17063;50.892;4.702;2023-11-18T13:04:24;1.70;;;0.60;;
30247;SDS011;17063;50.892;4.702;2023-11-18T13:06:54;2.60;;;0.87;;
30247;SDS011;17063;50.892;4.702;2023-11-18T13:09:21;1.83;;;0.70;;
30247;SDS011;17063;50.892;4.702;2023-11-18T13:11:53;1.47;;;0.50;;
30247;SDS011;17063;50.892;4.702;2023-11-18T13:14:26;2.70;;;0.70;;
30247;SDS011;17063;50.892;4.702;2023-11-18T13:16:55;0.60;;;0.60;;
30247;SDS011;17063;50.892;4.702;2023-11-18T13:19:32;1.13;;;0.67;;
30247;SDS011;17063;50.892;4.702;2023-11-18T13:22:02;0.70;;;0.70;;
30247;SDS011;17063;50.892;4.702;2023-11-18T13:24:35;1.20;;;0.60;;
30247;SDS011;17063;50.892;4.702;2023-11-18T13:27:07;9.57;;;0.70;;
30247;SDS011;17063;50.892;4.702;2023-11-18T13:29:35;2.03;;;0.60;;
30247;SDS011;17063;50.892;4.702;2023-11-18T13:32:06;0.93;;;0.60;;
30247;SDS011;17063;50.892;4.702;2023-11-18T13:34:33;0.50;;;0.50;;
30247;SDS011;17063;50.892;4.702;2023-11-18T13:37:13;0.53;;;0.53;;
30247;SDS011;17063;50.892;4.702;2023-11-18T13:39:43;0.60;;;0.60;;
30247;SDS011;17063;50.892;4.702;2023-11-18T13:42:18;0.67;;;0.67;;
30247;SDS011;17063;50.892;4.702;2023-11-18T13:44:49;0.60;;;0.60;;
30247;SDS011;17063;50.892;4.702;2023-11-18T13:47:17;0.53;;;0.53;;
30247;SDS011;17063;50.892;4.702;2023-11-18T13:49:44;0.83;;;0.63;;
30247;SDS011;17063;50.892;4.702;2023-11-18T13:52:12;0.83;;;0.70;;
30247;SDS011;17063;50.892;4.702;2023-11-18T13:54:42;0.60;;;0.60;;
30247;SDS011;17063;50.892;4.702;2023-11-18T13:57:13;0.60;;;0.60;;
30247;SDS011;17063;50.892;4.702;2023-11-18T13:59:40;3.43;;;0.80;;
30247;SDS011;17063;50.892;4.702;2023-11-18T14:02:09;1.10;;;0.83;;
30247;SDS011;17063;50.892;4.702;2023-11-18T14:04:36;1.77;;;0.60;;
30247;SDS011;17063;50.892;4.702;2023-11-18T14:07:06;0.73;;;0.63;;
30247;SDS011;17063;50.892;4.702;2023-11-18T14:09:33;0.53;;;0.50;;
30247;SDS011;17063;50.892;4.702;2023-11-18T14:12:03;1.70;;;0.57;;
30247;SDS011;17063;50.892;4.702;2023-11-18T14:14:33;0.40;;;0.40;;
30247;SDS011;17063;50.892;4.702;2023-11-18T14:17:00;0.60;;;0.60;;
30247;SDS011;17063;50.892;4.702;2023-11-18T14:19:28;2.17;;;0.77;;
30247;SDS011;17063;50.892;4.702;2023-11-18T14:21:55;0.80;;;0.67;;
30247;SDS011;17063;50.892;4.702;2023-11-18T14:24:23;0.83;;;0.50;;
30247;SDS011;17063;50.892;4.702;2023-11-18T14:26:59;0.90;;;0.67;;
30247;SDS011;17063;50.892;4.702;2023-11-18T14:29:26;3.00;;;0.90;;
30247;SDS011;17063;50.892;4.702;2023-11-18T14:31:55;0.93;;;0.50;;
30247;SDS011;17063;50.892;4.702;2023-11-18T14:34:22;0.87;;;0.50;;
30247;SDS011;17063;50.892;4.702;2023-11-18T14:36:51;3.03;;;0.50;;
30247;SDS011;17063;50.892;4.702;2023-11-18T14:39:18;2.60;;;0.70;;
30247;SDS011;17063;50.892;4.702;2023-11-18T14:41:49;0.40;;;0.40;;
30247;SDS011;17063;50.892;4.702;2023-11-18T14:44:17;0.40;;;0.40;;
30247;SDS011;17063;50.892;4.702;2023-11-18T14:46:45;0.83;;;0.50;;
30247;SDS011;17063;50.892;4.702;2023-11-18T14:49:12;0.87;;;0.50;;
30247;SDS011;17063;50.892;4.702;2023-11-18T14:51:39;2.20;;;0.60;;
30247;SDS011;17063;50.892;4.702;2023-11-18T14:54:06;0.50;;;0.50;;
30247;SDS011;17063;50.892;4.702;2023-11-18T14:56:35;0.90;;;0.90;;
30247;SDS011;17063;50.892;4.702;2023-11-18T14:59:02;0.40;;;0.40;;
30247;SDS011;17063;50.892;4.702;2023-11-18T15:01:32;1.30;;;0.50;;
30247;SDS011;17063;50.892;4.702;2023-11-18T15:03:59;0.50;;;0.50;;
30247;SDS011;17063;50.892;4.702;2023-11-18T15:06:26;0.90;;;0.70;;
30247;SDS011;17063;50.892;4.702;2023-11-18T15:08:54;0.53;;;0.53;;
30247;SDS011;17063;50.892;4.702;2023-11-18T15:11:23;0.73;;;0.70;;
30247;SDS011;17063;50.892;4.702;2023-11-18T15:13:51;0.67;;;0.60;;
30247;SDS011;17063;50.892;4.702;2023-11-18T15:16:23;0.90;;;0.80;;
30247;SDS011;17063;50.892;4.702;2023-11-18T15:18:50;1.20;;;0.90;;
30247;SDS011;17063;50.892;4.702;2023-11-18T15:21:19;1.07;;;0.93;;
30247;SDS011;17063;50.892;4.702;2023-11-18T15:23:46;1.10;;;0.77;;
30247;SDS011;17063;50.892;4.702;2023-11-18T15:26:16;0.60;;;0.60;;
30247;SDS011;17063;50.892;4.702;2023-11-18T15:28:43;3.93;;;1.00;;
30247;SDS011;17063;50.892;4.702;2023-11-18T15:31:11;1.97;;;1.10;;
30247;SDS011;17063;50.892;4.702;2023-11-18T15:33:42;2.77;;;0.63;;